createdAt,value
2022-10-15T00:00:16.893Z,13.39
2022-10-15T00:01:16.389Z,13.39
2022-10-15T00:02:16.393Z,13.40
2022-10-15T00:03:16.822Z,13.39
2022-10-15T00:04:17.256Z,13.36
2022-10-15T00:05:16.684Z,13.39
2022-10-15T00:06:17.102Z,13.39
2022-10-15T00:07:16.567Z,13.37
2022-10-15T00:08:17.011Z,13.39
2022-10-15T00:09:16.489Z,13.39
2022-10-15T00:10:16.956Z,13.37
2022-10-15T00:11:16.421Z,13.37
2022-10-15T00:12:16.954Z,13.36
2022-10-15T00:13:16.441Z,13.36
2022-10-15T00:14:16.924Z,13.36
2022-10-15T00:15:16.422Z,13.37
2022-10-15T00:16:16.901Z,13.36
2022-10-15T00:17:16.336Z,13.34
2022-10-15T00:18:16.789Z,13.36
2022-10-15T00:19:17.223Z,13.33
2022-10-15T00:20:16.664Z,13.33
2022-10-15T00:21:17.100Z,13.32
2022-10-15T00:22:16.651Z,13.34
2022-10-15T00:23:17.086Z,13.34
2022-10-15T00:24:16.556Z,13.32
2022-10-15T00:25:17.003Z,13.34
2022-10-15T00:26:16.459Z,13.34
2022-10-15T00:27:16.922Z,13.32
2022-10-15T00:28:16.413Z,13.33
2022-10-15T00:29:16.981Z,13.33
2022-10-15T00:30:16.469Z,13.33
2022-10-15T00:31:16.897Z,13.33
2022-10-15T00:32:16.413Z,13.33
2022-10-15T00:33:16.880Z,13.33
2022-10-15T00:34:16.356Z,13.32
2022-10-15T00:35:16.790Z,13.33
2022-10-15T00:36:17.210Z,13.32
2022-10-15T00:37:16.637Z,13.32
2022-10-15T00:38:17.096Z,13.33
2022-10-15T00:39:16.557Z,13.30
2022-10-15T00:40:17.061Z,13.32
2022-10-15T00:41:16.531Z,13.29
2022-10-15T00:42:17.234Z,13.29
2022-10-15T00:43:16.694Z,13.29
2022-10-15T00:44:17.163Z,13.29
2022-10-15T00:45:16.607Z,13.29
2022-10-15T00:46:17.037Z,13.33
2022-10-15T00:47:16.457Z,13.30
2022-10-15T00:48:16.896Z,13.30
2022-10-15T00:49:16.368Z,13.29
2022-10-15T00:50:16.808Z,13.32
2022-10-15T00:51:17.233Z,13.32
2022-10-15T00:52:16.691Z,13.32
2022-10-15T00:53:17.151Z,13.29
2022-10-15T00:54:16.593Z,13.29
2022-10-15T00:55:17.035Z,13.29
2022-10-15T00:56:16.503Z,13.30
2022-10-15T00:57:17.011Z,13.30
2022-10-15T00:58:16.530Z,13.29
2022-10-15T00:59:17.021Z,13.32
2022-10-15T01:00:16.509Z,13.30
2022-10-15T01:01:16.956Z,13.30
2022-10-15T01:02:16.728Z,13.29
2022-10-15T01:03:17.206Z,13.30
2022-10-15T01:04:16.649Z,13.30
2022-10-15T01:05:17.080Z,13.30
2022-10-15T01:06:16.507Z,13.30
2022-10-15T01:08:16.413Z,13.29
2022-10-15T01:09:16.902Z,13.32
2022-10-15T01:10:16.399Z,13.30
2022-10-15T01:11:16.883Z,13.29
2022-10-15T01:12:16.375Z,13.32
2022-10-15T01:13:16.826Z,13.32
2022-10-15T01:14:17.280Z,13.33
2022-10-15T01:15:16.730Z,13.30
2022-10-15T01:16:17.163Z,13.32
2022-10-15T01:17:16.616Z,13.30
2022-10-15T01:18:17.061Z,13.32
2022-10-15T01:19:16.544Z,13.30
2022-10-15T01:20:16.992Z,13.32
2022-10-15T01:21:16.431Z,13.30
2022-10-15T01:22:16.373Z,13.32
2022-10-15T01:23:16.846Z,13.33
2022-10-15T01:24:16.349Z,13.33
2022-10-15T01:26:16.316Z,13.36
2022-10-15T01:27:16.754Z,13.32
2022-10-15T01:28:17.259Z,13.33
2022-10-15T01:29:16.760Z,13.33
2022-10-15T01:30:17.228Z,13.36
2022-10-15T01:31:16.646Z,13.32
2022-10-15T01:32:17.248Z,13.34
2022-10-15T01:33:16.680Z,13.34
2022-10-15T01:35:17.143Z,13.32
2022-10-15T01:36:16.576Z,13.36
2022-10-15T01:37:17.021Z,13.33
2022-10-15T01:38:16.490Z,13.36
2022-10-15T01:39:16.979Z,13.30
2022-10-15T01:40:16.507Z,13.34
2022-10-15T01:41:16.963Z,13.34
2022-10-15T01:42:16.460Z,13.34
2022-10-15T01:43:16.940Z,13.33
2022-10-15T01:44:16.492Z,13.37
2022-10-15T01:45:16.920Z,13.33
2022-10-15T01:46:16.343Z,13.36
2022-10-15T01:47:16.805Z,13.36
2022-10-15T01:48:17.245Z,13.34
2022-10-15T01:49:16.667Z,13.36
2022-10-15T01:50:17.088Z,13.34
2022-10-15T01:51:16.567Z,13.36
2022-10-15T01:52:16.765Z,13.34
2022-10-15T01:53:16.376Z,13.36
2022-10-15T01:54:16.880Z,13.37
2022-10-15T01:55:16.344Z,13.37
2022-10-15T01:56:16.813Z,13.36
2022-10-15T01:57:17.270Z,13.37
2022-10-15T01:58:16.758Z,13.36
2022-10-15T01:59:17.195Z,13.36
2022-10-15T02:00:16.652Z,13.39
2022-10-15T02:01:17.166Z,13.36
2022-10-15T02:02:16.489Z,13.40
2022-10-15T02:03:16.914Z,13.37
2022-10-15T02:04:16.352Z,13.37
2022-10-15T02:05:16.816Z,13.36
2022-10-15T02:06:17.243Z,13.39
2022-10-15T02:07:16.799Z,13.37
2022-10-15T02:08:17.272Z,13.37
2022-10-15T02:09:16.779Z,13.37
2022-10-15T02:10:17.244Z,13.37
2022-10-15T02:11:16.708Z,13.36
2022-10-15T02:12:17.204Z,13.37
2022-10-15T02:13:16.660Z,13.39
2022-10-15T02:14:17.095Z,13.37
2022-10-15T02:15:16.530Z,13.34
2022-10-15T02:16:16.954Z,13.37
2022-10-15T02:17:16.371Z,13.37
2022-10-15T02:18:16.820Z,13.34
2022-10-15T02:19:17.237Z,13.36
2022-10-15T02:20:16.681Z,13.37
2022-10-15T02:21:17.153Z,13.37
2022-10-15T02:22:16.701Z,13.36
2022-10-15T02:23:17.192Z,13.34
2022-10-15T02:24:16.677Z,13.36
2022-10-15T02:25:17.163Z,13.37
2022-10-15T02:26:16.607Z,13.39
2022-10-15T02:27:17.100Z,13.39
2022-10-15T02:28:16.581Z,13.40
2022-10-15T02:30:16.748Z,13.37
2022-10-15T02:31:17.189Z,13.37
2022-10-15T02:32:16.625Z,13.40
2022-10-15T02:33:17.065Z,13.40
2022-10-15T02:34:16.515Z,13.42
2022-10-15T02:35:16.980Z,13.39
2022-10-15T02:36:16.448Z,13.37
2022-10-15T02:37:16.925Z,13.39
2022-10-15T02:38:16.385Z,13.39
2022-10-15T02:39:16.850Z,13.39
2022-10-15T02:40:16.312Z,13.37
2022-10-15T02:41:16.773Z,13.40
2022-10-15T02:42:17.230Z,13.39
2022-10-15T02:43:16.651Z,13.37
2022-10-15T02:44:17.119Z,13.39
2022-10-15T02:45:16.569Z,13.37
2022-10-15T02:46:17.004Z,13.40
2022-10-15T02:47:16.517Z,13.40
2022-10-15T02:48:17.076Z,13.42
2022-10-15T02:49:16.511Z,13.42
2022-10-15T02:50:16.966Z,13.40
2022-10-15T02:51:16.427Z,13.42
2022-10-15T02:52:16.955Z,13.40
2022-10-15T02:53:16.419Z,13.40
2022-10-15T02:54:16.875Z,13.39
2022-10-15T02:55:16.331Z,13.40
2022-10-15T02:56:16.921Z,13.39
2022-10-15T02:57:16.488Z,13.37
2022-10-15T02:58:16.909Z,13.40
2022-10-15T02:59:16.368Z,13.37
2022-10-15T03:00:16.784Z,13.39
2022-10-15T03:01:17.252Z,13.39
2022-10-15T03:02:16.980Z,13.37
2022-10-15T03:03:16.837Z,13.39
2022-10-15T03:04:16.500Z,13.40
2022-10-15T03:05:16.974Z,13.39
2022-10-15T03:06:16.561Z,13.39
2022-10-15T03:07:17.020Z,13.40
2022-10-15T03:08:16.504Z,13.39
2022-10-15T03:09:16.960Z,13.37
2022-10-15T03:10:16.474Z,13.42
2022-10-15T03:11:16.931Z,13.39
2022-10-15T03:12:17.197Z,13.37
2022-10-15T03:13:16.628Z,13.40
2022-10-15T03:14:17.121Z,13.39
2022-10-15T03:15:16.657Z,13.40
2022-10-15T03:16:17.100Z,13.40
2022-10-15T03:17:16.543Z,13.42
2022-10-15T03:18:17.013Z,13.40
2022-10-15T03:19:16.446Z,13.39
2022-10-15T03:20:16.899Z,13.40
2022-10-15T03:21:16.384Z,13.39
2022-10-15T03:22:17.253Z,13.40
2022-10-15T03:23:16.741Z,13.40
2022-10-15T03:24:17.226Z,13.37
2022-10-15T03:25:16.699Z,13.42
2022-10-15T03:26:17.139Z,13.40
2022-10-15T03:27:16.573Z,13.40
2022-10-15T03:28:17.056Z,13.42
2022-10-15T03:29:16.584Z,13.42
2022-10-15T03:30:17.011Z,13.43
2022-10-15T03:31:16.454Z,13.39
2022-10-15T03:32:17.031Z,13.40
2022-10-15T03:33:16.453Z,13.42
2022-10-15T03:34:16.919Z,13.43
2022-10-15T03:35:16.406Z,13.42
2022-10-15T03:36:16.898Z,13.40
2022-10-15T03:37:16.362Z,13.40
2022-10-15T03:38:16.819Z,13.40
2022-10-15T03:39:17.300Z,13.42
2022-10-15T03:40:16.759Z,13.40
2022-10-15T03:41:17.245Z,13.40
2022-10-15T03:42:16.784Z,13.42
2022-10-15T03:43:17.431Z,13.40
2022-10-15T03:44:16.867Z,13.40
2022-10-15T03:45:16.289Z,13.37
2022-10-15T03:46:16.749Z,13.39
2022-10-15T03:47:17.171Z,13.39
2022-10-15T03:48:16.606Z,13.37
2022-10-15T03:49:17.106Z,13.37
2022-10-15T03:50:16.563Z,13.37
2022-10-15T03:51:18.524Z,13.43
2022-10-15T03:52:16.553Z,13.39
2022-10-15T03:53:17.029Z,13.40
2022-10-15T03:54:16.489Z,13.40
2022-10-15T03:55:16.947Z,13.42
2022-10-15T03:56:16.441Z,13.40
2022-10-15T03:57:16.866Z,13.42
2022-10-15T03:58:16.313Z,13.42
2022-10-15T03:59:16.741Z,13.43
2022-10-15T04:00:17.172Z,13.42
2022-10-15T04:01:16.659Z,13.40
2022-10-15T04:02:17.110Z,13.42
2022-10-15T04:03:16.557Z,13.43
2022-10-15T04:04:17.029Z,13.43
2022-10-15T04:05:16.484Z,13.40
2022-10-15T04:06:16.971Z,13.42
2022-10-15T04:07:16.453Z,13.42
2022-10-15T04:08:16.935Z,13.42
2022-10-15T04:09:16.401Z,13.42
2022-10-15T04:10:16.895Z,13.44
2022-10-15T04:11:16.336Z,13.44
2022-10-15T04:12:16.867Z,13.46
2022-10-15T04:13:16.325Z,13.43
2022-10-15T04:14:16.742Z,13.43
2022-10-15T04:15:17.194Z,13.47
2022-10-15T04:16:16.659Z,13.42
2022-10-15T04:17:17.637Z,13.44
2022-10-15T04:18:16.455Z,13.42
2022-10-15T04:19:16.912Z,13.46
2022-10-15T04:20:16.397Z,13.46
2022-10-15T04:21:16.884Z,13.44
2022-10-15T04:22:16.490Z,13.46
2022-10-15T04:23:16.953Z,13.44
2022-10-15T04:24:16.434Z,13.47
2022-10-15T04:25:16.944Z,13.46
2022-10-15T04:26:16.425Z,13.44
2022-10-15T04:27:16.852Z,13.46
2022-10-15T04:28:16.368Z,13.47
2022-10-15T04:29:17.016Z,13.46
2022-10-15T04:30:16.477Z,13.46
2022-10-15T04:31:16.899Z,13.46
2022-10-15T04:32:16.781Z,13.44
2022-10-15T04:33:17.226Z,13.50
2022-10-15T04:34:16.702Z,13.46
2022-10-15T04:35:17.156Z,13.47
2022-10-15T04:37:17.062Z,13.46
2022-10-15T04:38:16.542Z,13.44
2022-10-15T04:39:16.990Z,13.47
2022-10-15T04:40:16.493Z,13.49
2022-10-15T04:41:16.942Z,13.47
2022-10-15T04:42:16.360Z,13.44
2022-10-15T04:43:16.801Z,13.46
2022-10-15T04:44:17.235Z,13.47
2022-10-15T04:45:16.678Z,13.49
2022-10-15T04:46:17.243Z,13.47
2022-10-15T04:47:16.661Z,13.47
2022-10-15T04:48:17.127Z,13.49
2022-10-15T04:49:16.581Z,13.46
2022-10-15T04:50:17.051Z,13.49
2022-10-15T04:51:16.495Z,13.49
2022-10-15T04:52:16.551Z,13.47
2022-10-15T04:53:17.003Z,13.46
2022-10-15T04:54:16.543Z,13.47
2022-10-15T04:55:17.104Z,13.49
2022-10-15T04:56:16.543Z,13.49
2022-10-15T04:57:16.983Z,13.47
2022-10-15T04:58:16.419Z,13.47
2022-10-15T04:59:16.865Z,13.47
2022-10-15T05:00:16.290Z,13.49
2022-10-15T05:01:16.728Z,13.47
2022-10-15T05:02:16.514Z,13.47
2022-10-15T05:03:17.337Z,13.49
2022-10-15T05:04:16.827Z,13.49
2022-10-15T05:05:16.303Z,13.51
2022-10-15T05:06:16.755Z,13.49
2022-10-15T05:07:17.213Z,13.50
2022-10-15T05:08:16.708Z,13.49
2022-10-15T05:09:17.192Z,13.49
2022-10-15T05:10:16.657Z,13.49
2022-10-15T05:11:17.085Z,13.47
2022-10-15T05:12:16.968Z,13.50
2022-10-15T05:13:16.407Z,13.49
2022-10-15T05:14:16.842Z,13.49
2022-10-15T05:15:17.276Z,13.50
2022-10-15T05:16:16.696Z,13.50
2022-10-15T05:17:17.137Z,13.49
2022-10-15T05:18:16.598Z,13.51
2022-10-15T05:19:17.075Z,13.47
2022-10-15T05:20:16.531Z,13.46
2022-10-15T05:21:17.019Z,13.49
2022-10-15T05:22:16.510Z,13.49
2022-10-15T05:23:16.957Z,13.51
2022-10-15T05:24:16.412Z,13.51
2022-10-15T05:25:16.876Z,13.50
2022-10-15T05:26:16.312Z,13.50
2022-10-15T05:27:16.800Z,13.47
2022-10-15T05:28:17.264Z,13.49
2022-10-15T05:29:16.835Z,13.53
2022-10-15T05:30:17.464Z,13.51
2022-10-15T05:31:18.731Z,13.51
2022-10-15T05:32:16.493Z,13.51
2022-10-15T05:33:17.077Z,13.50
2022-10-15T05:34:16.539Z,13.50
2022-10-15T05:35:17.018Z,13.51
2022-10-15T05:36:16.482Z,13.50
2022-10-15T05:37:16.951Z,13.50
2022-10-15T05:38:16.441Z,13.51
2022-10-15T05:39:16.941Z,13.50
2022-10-15T05:40:18.201Z,13.50
2022-10-15T05:41:16.564Z,13.53
2022-10-15T05:42:16.708Z,13.54
2022-10-15T05:43:17.153Z,13.53
2022-10-15T05:44:16.597Z,13.54
2022-10-15T05:45:17.067Z,13.54
2022-10-15T05:46:16.543Z,13.53
2022-10-15T05:47:17.036Z,13.54
2022-10-15T05:48:16.516Z,13.54
2022-10-15T05:49:17.001Z,13.55
2022-10-15T05:50:16.455Z,13.55
2022-10-15T05:51:16.963Z,13.57
2022-10-15T05:52:16.430Z,13.55
2022-10-15T05:53:16.904Z,13.55
2022-10-15T05:54:16.347Z,13.57
2022-10-15T05:55:16.793Z,13.55
2022-10-15T05:56:17.232Z,13.58
2022-10-15T05:57:16.693Z,13.58
2022-10-15T05:58:17.153Z,13.57
2022-10-15T05:59:16.604Z,13.57
2022-10-15T06:00:17.079Z,13.58
2022-10-15T06:01:16.604Z,13.60
2022-10-15T06:02:16.522Z,13.60
2022-10-15T06:03:17.116Z,13.61
2022-10-15T06:04:16.688Z,13.61
2022-10-15T06:05:17.155Z,13.64
2022-10-15T06:06:16.624Z,13.63
2022-10-15T06:07:17.072Z,13.65
2022-10-15T06:08:16.500Z,13.64
2022-10-15T06:09:16.956Z,13.65
2022-10-15T06:10:16.449Z,13.68
2022-10-15T06:11:16.882Z,13.65
2022-10-15T06:12:16.434Z,13.68
2022-10-15T06:13:16.935Z,13.70
2022-10-15T06:14:16.549Z,13.71
2022-10-15T06:15:17.021Z,13.73
2022-10-15T06:16:17.912Z,13.71
2022-10-15T06:17:16.573Z,13.71
2022-10-15T06:18:17.041Z,13.73
2022-10-15T06:19:16.507Z,13.71
2022-10-15T06:20:16.975Z,13.73
2022-10-15T06:21:16.466Z,13.76
2022-10-15T06:22:17.128Z,13.77
2022-10-15T06:23:16.565Z,13.78
2022-10-15T06:24:17.002Z,13.77
2022-10-15T06:25:16.453Z,13.77
2022-10-15T06:26:16.887Z,13.78
2022-10-15T06:27:16.345Z,13.81
2022-10-15T06:28:16.792Z,13.81
2022-10-15T06:29:16.303Z,13.80
2022-10-15T06:30:16.776Z,13.80
2022-10-15T06:31:17.245Z,13.82
2022-10-15T06:32:16.656Z,13.80
2022-10-15T06:33:17.184Z,13.82
2022-10-15T06:34:16.788Z,13.84
2022-10-15T06:35:17.246Z,13.81
2022-10-15T06:36:16.686Z,13.81
2022-10-15T06:37:17.108Z,13.82
2022-10-15T06:38:16.528Z,13.84
2022-10-15T06:39:16.970Z,13.84
2022-10-15T06:40:16.443Z,13.85
2022-10-15T06:41:16.865Z,13.85
2022-10-15T06:42:16.400Z,13.87
2022-10-15T06:43:16.842Z,13.88
2022-10-15T06:44:17.295Z,13.91
2022-10-15T06:45:18.122Z,13.92
2022-10-15T06:46:16.365Z,13.92
2022-10-15T06:47:16.818Z,13.92
2022-10-15T06:48:17.313Z,13.94
2022-10-15T06:49:16.784Z,13.94
2022-10-15T06:50:17.240Z,14.00
2022-10-15T06:51:16.688Z,14.04
2022-10-15T06:52:16.941Z,14.04
2022-10-15T06:53:16.360Z,14.04
2022-10-15T06:54:16.872Z,14.07
2022-10-15T06:55:16.295Z,14.08
2022-10-15T06:56:16.744Z,14.09
2022-10-15T06:57:17.212Z,14.07
2022-10-15T06:58:16.640Z,14.12
2022-10-15T06:59:17.097Z,14.11
2022-10-15T07:00:16.560Z,14.13
2022-10-15T07:01:17.016Z,14.13
2022-10-15T07:02:16.658Z,14.18
2022-10-15T07:03:17.108Z,14.16
2022-10-15T07:04:16.602Z,14.20
2022-10-15T07:05:17.057Z,14.20
2022-10-15T07:06:16.502Z,14.20
2022-10-15T07:07:16.976Z,14.22
2022-10-15T07:08:18.391Z,14.25
2022-10-15T07:09:16.948Z,14.28
2022-10-15T07:10:16.450Z,14.25
2022-10-15T07:11:16.976Z,14.25
2022-10-15T07:12:16.510Z,14.28
2022-10-15T07:13:16.982Z,14.28
2022-10-15T07:14:16.477Z,14.26
2022-10-15T07:15:16.967Z,14.29
2022-10-15T07:16:16.448Z,14.35
2022-10-15T07:17:16.901Z,14.32
2022-10-15T07:18:16.360Z,14.30
2022-10-15T07:19:16.815Z,14.36
2022-10-15T07:20:20.168Z,14.37
2022-10-15T07:21:16.778Z,14.37
2022-10-15T07:22:17.163Z,14.35
2022-10-15T07:23:16.587Z,14.36
2022-10-15T07:24:17.011Z,14.39
2022-10-15T07:25:16.454Z,14.36
2022-10-15T07:26:16.905Z,14.43
2022-10-15T07:27:18.883Z,14.44
2022-10-15T07:28:16.967Z,14.44
2022-10-15T07:29:16.496Z,14.44
2022-10-15T07:30:16.974Z,14.46
2022-10-15T07:31:16.431Z,14.47
2022-10-15T07:32:17.094Z,14.50
2022-10-15T07:33:16.557Z,14.53
2022-10-15T07:34:17.026Z,14.57
2022-10-15T07:35:16.466Z,14.55
2022-10-15T07:36:16.932Z,14.57
2022-10-15T07:37:16.380Z,14.60
2022-10-15T07:38:16.816Z,14.62
2022-10-15T07:39:17.237Z,14.70
2022-10-15T07:40:16.660Z,14.68
2022-10-15T07:41:17.111Z,14.73
2022-10-15T07:42:16.898Z,14.81
2022-10-15T07:43:16.396Z,14.81
2022-10-15T07:44:16.888Z,14.87
2022-10-15T07:45:16.411Z,14.81
2022-10-15T07:46:16.862Z,14.77
2022-10-15T07:47:16.313Z,14.83
2022-10-15T07:48:16.799Z,14.83
2022-10-15T07:49:17.263Z,14.85
2022-10-15T07:50:16.718Z,14.88
2022-10-15T07:52:16.855Z,14.85
2022-10-15T07:53:17.102Z,14.97
2022-10-15T07:54:16.929Z,14.95
2022-10-15T07:55:16.396Z,14.97
2022-10-15T07:56:16.817Z,14.97
2022-10-15T07:57:17.260Z,14.97
2022-10-15T07:58:16.740Z,15.01
2022-10-15T07:59:17.206Z,15.02
2022-10-15T08:00:16.693Z,14.95
2022-10-15T08:01:17.172Z,14.97
2022-10-15T08:02:16.803Z,14.98
2022-10-15T08:03:17.297Z,15.02
2022-10-15T08:04:16.760Z,15.06
2022-10-15T08:05:17.183Z,15.11
2022-10-15T08:06:16.636Z,15.11
2022-10-15T08:07:17.106Z,15.06
2022-10-15T08:08:16.543Z,15.01
2022-10-15T08:09:16.977Z,15.05
2022-10-15T08:10:16.433Z,15.05
2022-10-15T08:11:16.886Z,15.05
2022-10-15T08:12:16.356Z,15.09
2022-10-15T08:13:16.839Z,15.09
2022-10-15T08:14:16.313Z,15.14
2022-10-15T08:15:16.769Z,15.12
2022-10-15T08:16:17.243Z,15.14
2022-10-15T08:17:16.748Z,15.16
2022-10-15T08:18:17.245Z,15.21
2022-10-15T08:19:16.704Z,15.25
2022-10-15T08:20:17.164Z,15.28
2022-10-15T08:21:16.834Z,15.29
2022-10-15T08:22:16.608Z,15.33
2022-10-15T08:23:17.040Z,15.29
2022-10-15T08:24:16.467Z,15.35
2022-10-15T08:25:16.894Z,15.35
2022-10-15T08:26:16.344Z,15.32
2022-10-15T08:27:16.810Z,15.31
2022-10-15T08:28:17.350Z,15.33
2022-10-15T08:29:16.997Z,15.29
2022-10-15T08:30:16.469Z,15.33
2022-10-15T08:31:16.922Z,15.32
2022-10-15T08:32:16.571Z,15.31
2022-10-15T08:33:17.035Z,15.36
2022-10-15T08:34:16.505Z,15.38
2022-10-15T08:35:16.951Z,15.35
2022-10-15T08:36:16.395Z,15.36
2022-10-15T08:37:16.862Z,15.41
2022-10-15T08:38:17.649Z,15.39
2022-10-15T08:39:16.393Z,15.41
2022-10-15T08:40:16.819Z,15.41
2022-10-15T08:41:17.264Z,15.42
2022-10-15T08:42:17.243Z,15.45
2022-10-15T08:43:16.713Z,15.45
2022-10-15T08:44:17.186Z,15.50
2022-10-15T08:45:16.643Z,15.46
2022-10-15T08:47:16.551Z,15.50
2022-10-15T08:48:16.996Z,15.49
2022-10-15T08:49:16.459Z,15.52
2022-10-15T08:50:16.931Z,15.52
2022-10-15T08:51:16.381Z,15.54
2022-10-15T08:52:16.743Z,15.59
2022-10-15T08:53:17.215Z,15.54
2022-10-15T08:54:16.633Z,15.57
2022-10-15T08:55:17.107Z,15.59
2022-10-15T08:56:16.690Z,15.57
2022-10-15T08:57:17.139Z,15.56
2022-10-15T08:58:16.605Z,15.54
2022-10-15T08:59:17.090Z,15.57
2022-10-15T09:00:16.571Z,15.57
2022-10-15T09:01:17.035Z,15.53
2022-10-15T09:02:16.719Z,15.57
2022-10-15T09:03:17.308Z,15.62
2022-10-15T09:04:16.926Z,15.59
2022-10-15T09:05:16.439Z,15.64
2022-10-15T09:06:16.901Z,15.66
2022-10-15T09:07:16.331Z,15.74
2022-10-15T09:08:16.753Z,15.73
2022-10-15T09:09:17.186Z,15.76
2022-10-15T09:10:16.645Z,15.73
2022-10-15T09:11:17.090Z,15.77
2022-10-15T09:12:16.594Z,15.78
2022-10-15T09:13:17.045Z,15.81
2022-10-15T09:14:16.552Z,15.81
2022-10-15T09:15:17.023Z,15.85
2022-10-15T09:16:16.489Z,15.82
2022-10-15T09:17:16.986Z,15.85
2022-10-15T09:18:16.457Z,15.67
2022-10-15T09:19:16.924Z,15.76
2022-10-15T09:20:16.349Z,15.81
2022-10-15T09:21:16.775Z,15.85
2022-10-15T09:22:16.574Z,15.88
2022-10-15T09:23:17.005Z,15.90
2022-10-15T09:24:16.452Z,15.92
2022-10-15T09:25:16.902Z,15.97
2022-10-15T09:26:16.344Z,15.97
2022-10-15T09:27:17.076Z,16.09
2022-10-15T09:28:16.649Z,16.11
2022-10-15T09:29:17.223Z,16.12
2022-10-15T09:30:16.703Z,16.08
2022-10-15T09:31:17.189Z,16.11
2022-10-15T09:32:16.928Z,16.22
2022-10-15T09:33:16.375Z,16.18
2022-10-15T09:34:16.797Z,16.29
2022-10-15T09:35:17.227Z,16.09
2022-10-15T09:36:16.696Z,16.22
2022-10-15T09:37:17.129Z,16.35
2022-10-15T09:38:16.557Z,16.38
2022-10-15T09:39:16.981Z,16.27
2022-10-15T09:40:16.451Z,16.28
2022-10-15T09:41:16.998Z,16.35
2022-10-15T09:42:17.144Z,16.42
2022-10-15T09:43:16.610Z,16.49
2022-10-15T09:44:18.459Z,16.60
2022-10-15T09:45:16.647Z,16.52
2022-10-15T09:46:17.139Z,16.49
2022-10-15T09:47:16.657Z,16.43
2022-10-15T09:48:17.112Z,16.40
2022-10-15T09:49:16.577Z,16.43
2022-10-15T09:51:16.483Z,16.38
2022-10-15T09:52:16.508Z,16.38
2022-10-15T09:53:16.940Z,16.50
2022-10-15T09:54:16.360Z,16.53
2022-10-15T09:55:16.834Z,16.64
2022-10-15T09:56:16.309Z,16.53
2022-10-15T09:57:16.759Z,16.39
2022-10-15T09:58:17.262Z,16.47
2022-10-15T09:59:16.735Z,16.42
2022-10-15T10:00:17.236Z,16.43
2022-10-15T10:01:16.704Z,16.43
2022-10-15T10:02:17.203Z,16.39
2022-10-15T10:03:16.833Z,16.38
2022-10-15T10:04:17.261Z,16.33
2022-10-15T10:05:16.687Z,16.31
2022-10-15T10:06:17.135Z,16.33
2022-10-15T10:07:16.578Z,16.35
2022-10-15T10:08:17.043Z,16.31
2022-10-15T10:09:16.466Z,16.28
2022-10-15T10:10:16.918Z,16.29
2022-10-15T10:11:16.367Z,16.28
2022-10-15T10:12:16.782Z,16.32
2022-10-15T10:13:17.273Z,16.36
2022-10-15T10:14:16.728Z,16.42
2022-10-15T10:15:17.191Z,16.39
2022-10-15T10:16:16.653Z,16.35
2022-10-15T10:17:17.107Z,16.39
2022-10-15T10:18:16.556Z,16.33
2022-10-15T10:19:17.057Z,16.47
2022-10-15T10:20:16.489Z,16.47
2022-10-15T10:21:16.928Z,16.43
2022-10-15T10:22:16.480Z,16.43
2022-10-15T10:23:16.904Z,16.52
2022-10-15T10:24:16.362Z,16.53
2022-10-15T10:25:16.797Z,16.57
2022-10-15T10:26:17.261Z,16.62
2022-10-15T10:27:16.760Z,16.64
2022-10-15T10:28:17.516Z,16.71
2022-10-15T10:29:32.766Z,16.62
2022-10-15T10:30:16.808Z,16.67
2022-10-15T10:31:17.282Z,16.68
2022-10-15T10:32:16.619Z,16.66
2022-10-15T10:33:17.042Z,16.62
2022-10-15T10:34:16.475Z,16.74
2022-10-15T10:35:16.908Z,16.63
2022-10-15T10:36:16.361Z,16.60
2022-10-15T10:37:16.787Z,16.63
2022-10-15T10:38:17.240Z,16.76
2022-10-15T10:39:16.669Z,16.78
2022-10-15T10:40:17.155Z,16.81
2022-10-15T10:41:16.717Z,16.81
2022-10-15T10:42:16.710Z,16.86
2022-10-15T10:43:17.215Z,16.84
2022-10-15T10:44:16.672Z,16.81
2022-10-15T10:45:18.636Z,16.86
2022-10-15T10:46:16.563Z,16.90
2022-10-15T10:47:16.989Z,16.88
2022-10-15T10:48:16.439Z,16.87
2022-10-15T10:49:16.859Z,16.87
2022-10-15T10:50:16.345Z,16.90
2022-10-15T10:51:19.184Z,16.86
2022-10-15T10:52:16.502Z,16.95
2022-10-15T10:53:16.956Z,16.95
2022-10-15T10:54:16.436Z,17.11
2022-10-15T10:55:16.894Z,17.15
2022-10-15T10:56:16.344Z,17.15
2022-10-15T10:57:16.804Z,17.22
2022-10-15T10:58:17.299Z,17.14
2022-10-15T10:59:16.776Z,17.19
2022-10-15T11:00:17.462Z,17.29
2022-10-15T11:01:16.968Z,17.10
2022-10-15T11:02:16.726Z,17.18
2022-10-15T11:03:17.166Z,17.22
2022-10-15T11:04:17.208Z,17.24
2022-10-15T11:05:17.005Z,17.15
2022-10-15T11:06:16.448Z,17.21
2022-10-15T11:07:16.920Z,17.31
2022-10-15T11:08:16.364Z,17.35
2022-10-15T11:09:16.823Z,17.26
2022-10-15T11:10:17.286Z,17.24
2022-10-15T11:11:16.761Z,17.21
2022-10-15T11:12:16.488Z,17.29
2022-10-15T11:13:16.968Z,17.39
2022-10-15T11:14:16.430Z,17.45
2022-10-15T11:15:16.905Z,17.46
2022-10-15T11:16:16.325Z,17.38
2022-10-15T11:17:16.786Z,17.29
2022-10-15T11:18:17.302Z,17.36
2022-10-15T11:19:18.985Z,17.31
2022-10-15T11:20:37.816Z,17.35
2022-10-15T11:21:16.804Z,17.42
2022-10-15T11:22:16.904Z,17.68
2022-10-15T11:23:16.375Z,17.72
2022-10-15T11:24:16.843Z,17.76
2022-10-15T11:25:17.282Z,17.66
2022-10-15T11:26:16.745Z,17.68
2022-10-15T11:27:17.245Z,17.86
2022-10-15T11:28:16.842Z,17.73
2022-10-15T11:29:16.475Z,17.68
2022-10-15T11:30:16.968Z,17.63
2022-10-15T11:31:16.457Z,17.65
2022-10-15T11:32:17.258Z,17.68
2022-10-15T11:33:16.632Z,17.57
2022-10-15T11:34:17.057Z,17.56
2022-10-15T11:35:20.182Z,17.54
2022-10-15T11:36:16.656Z,17.41
2022-10-15T11:37:17.132Z,17.43
2022-10-15T11:38:16.604Z,17.50
2022-10-15T11:39:17.096Z,17.56
2022-10-15T11:40:16.662Z,17.36
2022-10-15T11:41:17.131Z,17.42
2022-10-15T11:42:16.856Z,17.38
2022-10-15T11:43:16.315Z,17.49
2022-10-15T11:44:16.792Z,17.56
2022-10-15T11:45:17.281Z,17.66
2022-10-15T11:46:16.724Z,17.72
2022-10-15T11:47:17.182Z,17.69
2022-10-15T11:48:16.622Z,17.66
2022-10-15T11:49:17.084Z,17.57
2022-10-15T11:50:16.518Z,17.60
2022-10-15T11:51:16.955Z,17.59
2022-10-15T11:52:16.936Z,17.48
2022-10-15T11:53:16.410Z,17.43
2022-10-15T11:54:16.924Z,17.36
2022-10-15T11:55:16.482Z,17.39
2022-10-15T11:56:16.960Z,17.36
2022-10-15T11:57:16.469Z,17.35
2022-10-15T11:58:16.921Z,17.32
2022-10-15T11:59:16.421Z,17.31
2022-10-15T12:00:16.888Z,17.36
2022-10-15T12:01:16.349Z,17.41
2022-10-15T12:02:16.316Z,17.42
2022-10-15T12:03:16.842Z,17.39
2022-10-15T12:04:16.476Z,17.38
2022-10-15T12:05:16.996Z,17.36
2022-10-15T12:06:16.428Z,17.35
2022-10-15T12:07:16.872Z,17.35
2022-10-15T12:08:16.335Z,17.38
2022-10-15T12:09:16.814Z,17.43
2022-10-15T12:10:16.306Z,17.39
2022-10-15T12:11:16.774Z,17.38
2022-10-15T12:12:17.238Z,17.39
2022-10-15T12:13:16.695Z,17.33
2022-10-15T12:14:17.149Z,17.29
2022-10-15T12:15:16.614Z,17.29
2022-10-15T12:16:17.043Z,17.31
2022-10-15T12:17:16.470Z,17.31
2022-10-15T12:18:16.908Z,17.29
2022-10-15T12:19:16.376Z,17.31
2022-10-15T12:20:16.814Z,17.32
2022-10-15T12:21:17.247Z,17.31
2022-10-15T12:22:17.079Z,17.28
2022-10-15T12:23:16.537Z,17.35
2022-10-15T12:24:16.994Z,17.36
2022-10-15T12:25:16.465Z,17.36
2022-10-15T12:26:16.916Z,17.33
2022-10-15T12:27:16.395Z,17.32
2022-10-15T12:28:16.994Z,17.39
2022-10-15T12:29:16.554Z,17.46
2022-10-15T12:30:16.984Z,17.59
2022-10-15T12:31:16.420Z,17.63
2022-10-15T12:32:16.932Z,17.76
2022-10-15T12:33:16.396Z,17.86
2022-10-15T12:34:16.829Z,17.96
2022-10-15T12:35:17.273Z,17.98
2022-10-15T12:36:16.804Z,18.12
2022-10-15T12:37:17.267Z,18.11
2022-10-15T12:38:16.708Z,18.17
2022-10-15T12:39:21.568Z,18.19
2022-10-15T12:40:16.684Z,18.13
2022-10-15T12:41:17.142Z,18.12
2022-10-15T12:42:17.126Z,17.96
2022-10-15T12:43:16.609Z,17.94
2022-10-15T12:44:17.149Z,17.77
2022-10-15T12:45:16.754Z,17.74
2022-10-15T12:46:17.214Z,17.77
2022-10-15T12:47:16.639Z,17.73
2022-10-15T12:48:17.060Z,17.70
2022-10-15T12:49:16.508Z,17.72
2022-10-15T12:50:16.929Z,17.66
2022-10-15T12:51:16.386Z,17.60
2022-10-15T12:52:17.040Z,17.56
2022-10-15T12:53:16.514Z,17.43
2022-10-15T12:54:16.999Z,17.42
2022-10-15T12:55:16.471Z,17.49
2022-10-15T12:56:16.935Z,17.68
2022-10-15T12:57:16.402Z,17.70
2022-10-15T12:58:16.878Z,17.89
2022-10-15T12:59:16.370Z,17.90
2022-10-15T13:00:16.847Z,17.96